Plainfield, Wisconsin
Current Conditions -  °F | °C
As of 5:56 PM on Friday 21 Nov 2014 (Local Time) from KY50 Reporting Station
Clear Clear  
Wind Chill: 18°   Ceiling: Unl
Heat Index: 27°   Visibility: 10mi
Dew Point:   Wind: 10mph
Humidity: 45%   Direction: 190°S
Pressure: 30.17"   Gusts: NA
Location:  44.21°N, 89.49°W
Report Text: KY50 212356Z AUTO 19009KT 10SM CLR M03/M13 A3017 RMK AO2 TSNO 58017 T10271133 11005 21033 SLP233
Loading
Personal Weather Stations






























Interactive Weather Map New forecast layout! Learn more

10-Day Weather Forecast

Advertisements
Track Severe Weather on mobile